Time;durP1;ratioP1;P1;durP2;ratioP2;P2;SDS_P1;SDS_P2;PMS_P1;PMS_P2;Temp;Humidity;BMP_temperature;BMP_pressure;BME280_temperature;BME280_humidity;BME280_pressure;Samples;Min_cycle;Max_cycle;Signal;HPM_P1;HPM_P2
2021/12/07 00:02:12;;;;;;;38.60;11.73;;;-0.30;99.90;;;;;;5029138;28;20132;-81
2021/12/07 00:04:40;;;;;;;38.65;12.20;;;-0.30;99.90;;;;;;5030552;28;20053;-80
2021/12/07 00:07:07;;;;;;;32.25;11.55;;;-0.30;99.90;;;;;;5028016;28;20081;-80
2021/12/07 00:09:44;;;;;;;36.08;12.35;;;-0.30;99.90;;;;;;5030602;28;20046;-80
2021/12/07 00:12:12;;;;;;;34.72;11.95;;;-0.40;99.90;;;;;;5012660;28;20081;-80
2021/12/07 00:14:41;;;;;;;35.45;12.15;;;-0.40;99.90;;;;;;5030414;28;20103;-81
2021/12/07 00:17:08;;;;;;;34.72;11.70;;;-0.40;99.90;;;;;;5030494;28;20053;-80
2021/12/07 00:19:36;;;;;;;32.05;12.00;;;-0.40;99.90;;;;;;5030000;28;20054;-80
2021/12/07 00:22:06;;;;;;;36.95;11.75;;;-0.50;99.90;;;;;;5012401;28;20133;-80
2021/12/07 00:24:38;;;;;;;39.15;12.85;;;-0.60;99.90;;;;;;5012366;28;20049;-80
2021/12/07 00:27:04;;;;;;;32.53;12.57;;;-0.50;99.90;;;;;;5010658;28;20129;-80
2021/12/07 00:29:31;;;;;;;37.58;12.35;;;-0.40;99.90;;;;;;5030047;28;20473;-80
2021/12/07 00:32:21;;;;;;;31.95;12.00;;;-0.40;99.90;;;;;;5011944;28;20045;-80
2021/12/07 00:37:23;;;;;;;33.08;12.55;;;-0.50;99.90;;;;;;5025900;28;20090;-80
2021/12/07 00:39:50;;;;;;;39.65;13.77;;;-0.50;99.90;;;;;;5027785;28;20055;-80
2021/12/07 00:42:21;;;;;;;35.03;11.65;;;-0.50;99.90;;;;;;5012403;28;20131;-80
2021/12/07 00:44:48;;;;;;;35.75;13.23;;;-0.50;99.90;;;;;;5030953;28;20081;-80
2021/12/07 00:47:16;;;;;;;36.80;12.65;;;-0.40;99.90;;;;;;5030161;28;20076;-81
2021/12/07 00:49:43;;;;;;;36.10;13.00;;;-0.50;99.90;;;;;;5029885;28;20405;-81
2021/12/07 00:52:10;;;;;;;34.28;12.50;;;-0.40;99.90;;;;;;5030149;28;20566;-80
2021/12/07 00:54:39;;;;;;;39.00;13.77;;;-0.50;99.90;;;;;;5030165;28;20092;-80
2021/12/07 00:57:06;;;;;;;36.28;14.00;;;-0.50;99.90;;;;;;5012735;28;20096;-80
2021/12/07 00:59:36;;;;;;;37.08;12.73;;;-0.60;99.90;;;;;;5012435;28;20506;-80
2021/12/07 01:02:04;;;;;;;42.15;13.73;;;-0.60;99.90;;;;;;5012003;28;20495;-80
2021/12/07 01:04:33;;;;;;;34.83;12.98;;;-0.50;99.90;;;;;;5012266;28;20137;-80
2021/12/07 01:07:04;;;;;;;36.72;11.77;;;-0.60;99.90;;;;;;5029719;28;20073;-81
2021/12/07 01:09:43;;;;;;;37.35;13.52;;;-0.70;99.90;;;;;;5029879;28;20125;-81
2021/12/07 01:25:59;;;;;;;36.03;12.02;;;-0.60;99.90;;;;;;5025619;28;20046;-80
2021/12/07 01:28:35;;;;;;;37.47;13.20;;;-0.60;99.90;;;;;;5033941;28;20125;-81
2021/12/07 01:31:28;;;;;;;35.83;12.65;;;-0.60;99.90;;;;;;5015462;28;20072;-81
2021/12/07 01:52:52;;;;;;;48.97;15.40;;;-0.20;99.90;;;;;;5028881;28;20145;-81
2021/12/07 02:00:58;;;;;;;46.03;16.17;;;0.00;99.90;;;;;;5031123;28;20093;-80
2021/12/07 02:03:26;;;;;;;45.35;15.68;;;0.10;99.90;;;;;;5032389;28;20053;-81
2021/12/07 02:06:00;;;;;;;41.95;14.73;;;0.10;99.90;;;;;;5014286;28;20089;-80
2021/12/07 02:08:27;;;;;;;42.65;14.98;;;0.20;99.90;;;;;;5011633;28;20054;-80
2021/12/07 02:10:58;;;;;;;43.97;16.77;;;0.20;99.90;;;;;;5009632;28;20080;-80
2021/12/07 02:15:59;;;;;;;38.05;14.88;;;0.20;99.90;;;;;;5026574;28;20057;-80
2021/12/07 02:18:26;;;;;;;47.03;15.90;;;0.30;99.90;;;;;;5032386;28;20092;-80
2021/12/07 02:20:53;;;;;;;43.85;15.88;;;0.30;99.90;;;;;;5031801;28;20084;-80
2021/12/07 02:23:20;;;;;;;46.67;16.55;;;0.40;99.90;;;;;;5013141;28;20128;-80
2021/12/07 02:26:05;;;;;;;44.58;15.35;;;0.40;99.90;;;;;;5032014;28;20049;-80
2021/12/07 02:28:32;;;;;;;;;;;0.40;99.90;;;;;;5032135;28;20124;-80
2021/12/07 02:30:58;;;;;;;45.47;15.38;;;0.40;99.90;;;;;;5013304;28;20032;-80
2021/12/07 02:33:28;;;;;;;46.25;16.55;;;0.40;99.90;;;;;;5013899;28;20099;-80
2021/12/07 02:35:55;;;;;;;46.80;15.82;;;0.40;99.90;;;;;;5014058;28;20094;-80
2021/12/07 02:38:22;;;;;;;47.15;15.68;;;0.40;99.90;;;;;;5031402;28;20050;-80
2021/12/07 02:40:49;;;;;;;44.10;16.02;;;0.30;99.90;;;;;;5024555;28;20465;-79
2021/12/07 02:43:16;;;;;;;44.38;17.45;;;0.30;99.90;;;;;;5027070;28;20126;-80
2021/12/07 02:45:44;;;;;;;48.65;16.20;;;0.30;99.90;;;;;;5031937;28;20072;-80
2021/12/07 02:48:10;;;;;;;44.92;16.30;;;0.10;99.90;;;;;;5011044;28;20406;-80
2021/12/07 02:50:37;;;;;;;40.38;14.93;;;0.10;99.90;;;;;;5006030;28;20124;-80
2021/12/07 02:53:04;;;;;;;39.45;14.95;;;0.10;99.90;;;;;;5029965;28;20132;-80
2021/12/07 02:55:32;;;;;;;44.15;16.70;;;0.10;99.90;;;;;;5014281;28;20124;-80
2021/12/07 02:57:59;;;;;;;48.30;15.15;;;-0.10;99.90;;;;;;5015933;28;20053;-80
2021/12/07 03:00:34;;;;;;;52.80;16.50;;;0.00;99.90;;;;;;5030466;28;20069;-80
2021/12/07 03:03:06;;;;;;;47.03;16.55;;;-0.10;99.90;;;;;;5014251;28;20042;-80
2021/12/07 03:08:22;;;;;;;43.70;16.02;;;0.00;99.90;;;;;;5021891;28;20088;-80
2021/12/07 03:27:26;;;;;;;60.63;18.92;;;0.10;99.90;;;;;;5028384;28;20140;-80
2021/12/07 03:29:53;;;;;;;46.53;17.30;;;0.10;99.90;;;;;;5030989;28;20049;-80
2021/12/07 03:32:20;;;;;;;51.60;17.48;;;0.20;99.90;;;;;;5030492;28;20069;-80
2021/12/07 03:34:46;;;;;;;46.58;15.73;;;0.20;99.90;;;;;;5030730;28;20140;-80
2021/12/07 03:37:13;;;;;;;47.30;18.05;;;0.20;99.90;;;;;;5030423;28;20089;-80
2021/12/07 03:39:40;;;;;;;48.53;16.90;;;0.30;99.90;;;;;;5021210;28;20060;-80
2021/12/07 03:42:07;;;;;;;53.50;16.63;;;0.20;99.90;;;;;;5026221;28;20080;-80
2021/12/07 03:44:33;;;;;;;58.20;19.05;;;0.20;99.90;;;;;;5031022;28;20459;-80
2021/12/07 03:47:00;;;;;;;48.58;18.27;;;0.30;99.90;;;;;;5030779;28;20088;-81
2021/12/07 03:49:27;;;;;;;50.60;17.92;;;0.30;99.90;;;;;;5029914;28;20128;-80
2021/12/07 03:51:53;;;;;;;50.65;17.58;;;0.30;99.90;;;;;;5028472;28;20455;-80
2021/12/07 03:54:20;;;;;;;53.58;17.95;;;0.30;99.90;;;;;;5026825;28;20144;-80
2021/12/07 03:56:47;;;;;;;43.90;16.80;;;0.40;99.90;;;;;;5010377;28;20085;-80
2021/12/07 03:59:14;;;;;;;46.22;17.75;;;0.40;99.90;;;;;;5027883;28;20125;-80
2021/12/07 04:01:47;;;;;;;47.53;17.27;;;0.50;99.90;;;;;;5028424;28;20092;-80
2021/12/07 04:04:14;;;;;;;46.65;18.15;;;0.50;99.90;;;;;;5021453;28;20049;-80
2021/12/07 04:06:47;;;;;;;49.65;19.23;;;0.40;99.90;;;;;;5028024;28;20753;-80
2021/12/07 04:09:14;;;;;;;53.55;18.48;;;0.50;99.90;;;;;;5025910;28;20056;-76
2021/12/07 04:11:40;;;;;;;54.17;19.13;;;0.50;99.90;;;;;;5011743;28;20049;-77
2021/12/07 04:14:07;;;;;;;51.50;18.92;;;0.50;99.90;;;;;;5024180;28;20132;-77
2021/12/07 04:16:34;;;;;;;55.95;18.98;;;0.50;99.90;;;;;;5007093;28;20148;-78
2021/12/07 04:19:01;;;;;;;51.97;17.42;;;0.50;99.90;;;;;;5025647;28;20065;-78
2021/12/07 04:21:28;;;;;;;62.67;20.05;;;0.50;99.90;;;;;;5025837;28;20060;-77
2021/12/07 04:23:55;;;;;;;53.00;19.30;;;0.50;99.90;;;;;;5022419;28;20095;-77
2021/12/07 04:26:22;;;;;;;54.63;18.27;;;0.50;99.90;;;;;;4997945;28;20164;-77
2021/12/07 04:28:49;;;;;;;52.75;20.27;;;0.60;99.90;;;;;;4988144;28;20156;-77
2021/12/07 04:31:16;;;;;;;52.85;18.38;;;0.50;99.90;;;;;;5003767;28;20160;-77
2021/12/07 04:33:43;;;;;;;45.90;17.70;;;0.50;99.90;;;;;;5004667;28;20060;-78
2021/12/07 04:36:11;;;;;;;49.20;17.63;;;0.60;99.90;;;;;;5027759;28;20176;-77
2021/12/07 04:38:39;;;;;;;46.33;18.30;;;0.50;99.90;;;;;;5008094;28;20056;-77
2021/12/07 04:41:07;;;;;;;47.03;18.70;;;0.50;99.90;;;;;;5007516;28;20049;-77
2021/12/07 04:43:37;;;;;;;56.10;18.73;;;0.50;99.90;;;;;;5026490;28;20053;-77
2021/12/07 04:46:17;;;;;;;54.13;19.15;;;0.50;99.90;;;;;;5009193;28;20741;-77
2021/12/07 04:59:34;;;;;;;55.60;18.65;;;0.50;99.90;;;;;;5027530;28;20045;-77
2021/12/07 05:02:02;;;;;;;53.17;19.58;;;0.50;99.90;;;;;;5024037;28;20490;-78
2021/12/07 05:04:32;;;;;;;43.88;17.60;;;0.50;99.90;;;;;;5010630;28;20088;-78
2021/12/07 05:07:08;;;;;;;51.85;19.67;;;0.50;99.90;;;;;;5026878;28;20146;-78
2021/12/07 05:14:41;;;;;;;49.35;18.13;;;0.60;99.90;;;;;;5018953;28;20087;-77
2021/12/07 05:39:28;;;;;;;43.22;16.27;;;-0.20;99.90;;;;;;4972762;28;20141;-78
2021/12/07 05:41:57;;;;;;;53.08;18.38;;;-0.20;99.90;;;;;;4998607;28;20132;-78
2021/12/07 05:44:24;;;;;;;53.97;18.60;;;-0.30;99.90;;;;;;5004670;28;20460;-78
2021/12/07 05:46:51;;;;;;;56.53;18.50;;;-0.30;99.90;;;;;;5030060;28;20124;-78
2021/12/07 05:49:17;;;;;;;52.55;18.40;;;-0.30;99.90;;;;;;5011778;28;20060;-77
2021/12/07 05:51:44;;;;;;;50.15;17.23;;;-0.30;99.90;;;;;;5012099;28;20537;-78
2021/12/07 05:54:11;;;;;;;48.00;17.15;;;-0.30;99.90;;;;;;5038276;28;20144;-78
2021/12/07 05:56:39;;;;;;;50.53;16.70;;;-0.20;99.90;;;;;;5003441;28;20511;-78
2021/12/07 05:59:11;;;;;;;50.08;18.35;;;-0.10;99.90;;;;;;5016555;28;20087;-81
2021/12/07 06:01:39;;;;;;;44.72;16.98;;;-0.10;99.90;;;;;;5030899;28;20080;-82
2021/12/07 06:04:08;;;;;;;46.70;16.65;;;0.00;99.90;;;;;;5023084;28;20068;-85
2021/12/07 06:06:39;;;;;;;48.25;17.70;;;0.10;99.90;;;;;;5014546;28;20103;-83
2021/12/07 06:09:07;;;;;;;46.40;16.65;;;0.20;99.90;;;;;;5005658;28;20046;-79
2021/12/07 06:11:33;;;;;;;53.47;18.38;;;0.20;99.90;;;;;;5013004;28;20136;-80
2021/12/07 06:14:00;;;;;;;47.35;18.13;;;0.30;99.90;;;;;;5009756;28;20073;-78
2021/12/07 06:16:30;;;;;;;49.28;18.50;;;0.30;99.90;;;;;;5029250;28;20095;-76
2021/12/07 06:18:58;;;;;;;52.20;17.40;;;0.30;99.90;;;;;;5010422;28;20084;-77
2021/12/07 06:21:26;;;;;;;54.58;18.77;;;0.30;99.90;;;;;;5010753;28;20073;-79
2021/12/07 06:23:53;;;;;;;48.95;18.67;;;0.40;99.90;;;;;;5009667;28;20058;-78
2021/12/07 06:26:20;;;;;;;40.90;15.82;;;0.40;99.90;;;;;;5018135;28;20099;-78
2021/12/07 06:28:47;;;;;;;44.38;16.67;;;0.40;99.90;;;;;;5011592;28;20069;-77
2021/12/07 06:31:14;;;;;;;41.47;14.98;;;0.40;99.90;;;;;;5026409;28;20136;-76
2021/12/07 06:33:40;;;;;;;42.63;16.15;;;0.50;99.90;;;;;;5024296;28;20604;-76
2021/12/07 06:36:07;;;;;;;45.90;16.88;;;0.50;99.90;;;;;;5008134;28;20136;-78
2021/12/07 06:38:35;;;;;;;42.38;15.38;;;0.60;99.90;;;;;;5006621;28;20810;-78
2021/12/07 06:41:03;;;;;;;49.42;17.73;;;0.50;99.90;;;;;;5008285;28;20072;-79
2021/12/07 06:43:30;;;;;;;43.40;16.75;;;0.60;99.90;;;;;;5023535;28;20767;-76
2021/12/07 06:45:58;;;;;;;43.58;15.43;;;0.60;99.90;;;;;;5026331;28;20786;-77
2021/12/07 06:48:26;;;;;;;41.03;14.90;;;0.70;99.90;;;;;;5022753;28;20092;-79
2021/12/07 06:50:52;;;;;;;46.40;16.25;;;0.60;99.90;;;;;;5025187;28;20111;-78
2021/12/07 06:53:19;;;;;;;38.72;15.20;;;0.60;99.90;;;;;;5029698;28;20072;-78
2021/12/07 06:55:46;;;;;;;45.00;15.23;;;0.60;99.90;;;;;;5008105;28;20141;-77
2021/12/07 06:58:13;;;;;;;47.92;16.60;;;0.70;99.90;;;;;;5008610;28;20084;-78
2021/12/07 07:00:41;;;;;;;40.58;14.77;;;0.70;99.90;;;;;;5028516;28;20545;-81
2021/12/07 07:03:08;;;;;;;43.92;16.85;;;0.60;99.90;;;;;;5013260;28;20065;-80
2021/12/07 07:05:35;;;;;;;40.92;15.68;;;0.70;99.90;;;;;;5005467;28;20053;-81
2021/12/07 07:08:02;;;;;;;42.65;14.95;;;0.70;99.90;;;;;;5028630;28;20049;-81
2021/12/07 07:10:30;;;;;;;44.85;16.02;;;0.70;99.90;;;;;;5011126;28;20077;-81
2021/12/07 07:12:57;;;;;;;44.58;15.48;;;0.70;99.90;;;;;;5009757;28;20136;-81
2021/12/07 07:15:23;;;;;;;39.63;14.30;;;0.70;99.90;;;;;;5031916;28;20057;-82
2021/12/07 07:17:50;;;;;;;43.22;15.38;;;0.60;99.90;;;;;;5013459;28;20745;-81
2021/12/07 07:20:17;;;;;;;45.78;16.05;;;0.80;99.90;;;;;;5030957;28;20081;-81
2021/12/07 07:22:45;;;;;;;40.60;16.02;;;0.70;99.90;;;;;;5031148;28;20049;-81
2021/12/07 07:25:12;;;;;;;38.03;14.05;;;0.70;99.90;;;;;;5012955;28;20057;-81
2021/12/07 07:27:40;;;;;;;41.67;15.88;;;0.80;99.90;;;;;;5030686;28;20049;-81
2021/12/07 07:30:10;;;;;;;40.55;14.50;;;0.80;99.90;;;;;;5012783;28;20076;-81
2021/12/07 07:32:37;;;;;;;42.30;14.45;;;0.80;99.90;;;;;;5031076;28;20080;-81
2021/12/07 07:35:05;;;;;;;40.97;14.45;;;0.80;99.90;;;;;;5030665;28;20144;-81
2021/12/07 07:37:32;;;;;;;39.95;15.23;;;0.80;99.90;;;;;;5030927;28;20141;-81
2021/12/07 07:40:04;;;;;;;37.28;14.77;;;0.80;99.90;;;;;;5012255;28;20076;-81
2021/12/07 07:42:33;;;;;;;33.70;13.45;;;0.80;99.90;;;;;;5012632;28;20049;-81
2021/12/07 07:44:59;;;;;;;40.22;15.43;;;0.80;99.90;;;;;;5030777;28;20136;-81
2021/12/07 07:47:28;;;;;;;35.47;14.05;;;0.90;99.90;;;;;;5030495;28;20068;-81
2021/12/07 07:49:55;;;;;;;33.67;13.43;;;0.90;99.90;;;;;;5026445;28;20088;-81
2021/12/07 07:52:23;;;;;;;36.28;13.45;;;0.90;99.90;;;;;;4993741;28;20045;-81
2021/12/07 07:54:50;;;;;;;36.45;14.35;;;0.90;99.90;;;;;;5010083;28;20136;-81
2021/12/07 07:57:17;;;;;;;38.63;13.88;;;0.90;99.90;;;;;;5011987;28;20129;-81
2021/12/07 07:59:44;;;;;;;40.67;14.68;;;0.90;99.90;;;;;;5012370;28;20073;-80
2021/12/07 08:02:11;;;;;;;30.73;13.00;;;1.00;99.90;;;;;;5013078;28;20096;-80
2021/12/07 08:04:38;;;;;;;34.05;13.68;;;1.00;99.90;;;;;;5012902;28;20050;-81
2021/12/07 08:07:05;;;;;;;34.40;14.27;;;1.00;99.90;;;;;;5013152;28;20107;-81
2021/12/07 08:09:32;;;;;;;35.67;14.18;;;1.00;99.90;;;;;;5012635;28;20049;-80
2021/12/07 08:12:00;;;;;;;39.60;13.35;;;1.10;99.90;;;;;;5029969;28;20095;-80
2021/12/07 08:14:27;;;;;;;29.50;12.07;;;1.10;99.90;;;;;;5010206;28;20053;-81
2021/12/07 08:16:54;;;;;;;37.47;14.15;;;1.10;99.90;;;;;;5012537;28;20445;-81
2021/12/07 08:19:22;;;;;;;35.90;13.52;;;1.10;99.90;;;;;;5012337;28;20053;-81
2021/12/07 08:21:48;;;;;;;30.85;12.50;;;1.20;99.90;;;;;;5016825;28;20092;-81
2021/12/07 08:24:16;;;;;;;40.00;14.13;;;1.20;99.90;;;;;;5034771;28;20100;-81
2021/12/07 08:26:43;;;;;;;30.45;12.35;;;1.20;99.90;;;;;;5014702;28;20099;-81
2021/12/07 08:29:10;;;;;;;33.63;12.40;;;1.30;99.90;;;;;;5031471;28;20053;-81
2021/12/07 08:31:37;;;;;;;34.13;13.38;;;1.30;99.90;;;;;;5016748;28;20089;-79
2021/12/07 08:34:04;;;;;;;33.22;14.50;;;1.30;99.90;;;;;;5033871;28;20473;-81
2021/12/07 08:36:34;;;;;;;33.42;13.48;;;1.30;99.90;;;;;;5016700;28;20084;-81
2021/12/07 08:39:00;;;;;;;33.40;14.50;;;1.30;99.90;;;;;;5016507;28;20060;-81
2021/12/07 08:41:28;;;;;;;39.20;13.48;;;1.40;99.90;;;;;;5015972;28;20137;-81
2021/12/07 08:43:56;;;;;;;44.72;13.73;;;1.40;99.90;;;;;;5011585;28;20243;-81
2021/12/07 08:46:23;;;;;;;30.75;13.20;;;1.40;99.90;;;;;;5017033;28;20073;-81
2021/12/07 08:48:50;;;;;;;36.08;13.75;;;1.40;99.90;;;;;;5016247;28;20046;-82
2021/12/07 08:51:27;;;;;;;34.63;13.32;;;1.40;99.90;;;;;;5016064;28;20548;-82
2021/12/07 08:54:00;;;;;;;33.13;14.48;;;1.40;99.90;;;;;;5034055;28;20050;-81
2021/12/07 09:01:57;;;;;;;39.10;13.23;;;1.40;99.90;;;;;;5022444;28;20416;-82
2021/12/07 09:04:24;;;;;;;31.92;13.60;;;1.50;99.90;;;;;;5029799;28;20046;-82
2021/12/07 09:06:55;;;;;;;34.35;15.18;;;1.40;99.90;;;;;;5031724;28;21625;-81
2021/12/07 09:09:27;;;;;;;37.83;13.63;;;1.40;99.90;;;;;;5014793;28;20096;-80
2021/12/07 09:11:55;;;;;;;35.55;14.02;;;1.40;99.90;;;;;;5027602;28;20080;-78
2021/12/07 09:14:23;;;;;;;31.08;13.20;;;1.40;99.90;;;;;;5012666;28;20058;-78
2021/12/07 09:16:50;;;;;;;34.58;14.32;;;1.40;99.90;;;;;;5015399;28;20107;-80
2021/12/07 09:19:17;;;;;;;36.53;14.75;;;1.50;99.90;;;;;;5013787;28;20788;-79
2021/12/07 09:21:47;;;;;;;40.75;15.68;;;1.40;99.90;;;;;;5014930;28;20132;-80
2021/12/07 09:24:14;;;;;;;37.40;14.13;;;1.50;99.90;;;;;;5032452;28;20049;-80
2021/12/07 09:26:41;;;;;;;38.30;14.50;;;1.60;99.90;;;;;;5015410;28;20073;-80
2021/12/07 09:29:15;;;;;;;40.50;16.02;;;1.60;99.90;;;;;;5029219;28;20127;-80
2021/12/07 09:31:43;;;;;;;33.78;14.80;;;1.50;99.90;;;;;;5013607;28;20041;-80
2021/12/07 09:34:11;;;;;;;44.95;16.92;;;1.60;99.90;;;;;;5032249;28;20064;-80
2021/12/07 09:36:40;;;;;;;37.10;15.20;;;1.60;99.90;;;;;;5031662;28;20081;-79
2021/12/07 09:39:10;;;;;;;36.58;15.10;;;1.60;99.90;;;;;;5031802;28;20067;-79
2021/12/07 09:41:38;;;;;;;40.97;14.75;;;1.60;99.90;;;;;;5013253;28;20069;-79
2021/12/07 09:44:06;;;;;;;38.13;15.38;;;1.60;99.90;;;;;;5031117;28;20064;-79
2021/12/07 09:46:34;;;;;;;40.20;15.63;;;1.70;99.90;;;;;;5021202;28;20076;-79
2021/12/07 09:49:05;;;;;;;41.92;15.95;;;1.70;99.90;;;;;;5026859;28;20096;-81
2021/12/07 09:51:32;;;;;;;42.03;16.70;;;1.60;99.90;;;;;;5032462;28;20099;-80
2021/12/07 09:54:00;;;;;;;41.97;15.80;;;1.80;99.90;;;;;;5032670;28;20099;-80
2021/12/07 09:56:27;;;;;;;46.25;17.90;;;1.80;99.90;;;;;;5015116;28;20157;-80
2021/12/07 09:58:56;;;;;;;38.92;17.17;;;1.80;99.90;;;;;;5014277;28;20630;-80
2021/12/07 10:01:25;;;;;;;44.22;18.30;;;1.70;99.90;;;;;;5027080;28;20057;-80
2021/12/07 10:03:53;;;;;;;42.00;17.63;;;1.80;99.90;;;;;;5032247;28;20061;-80
2021/12/07 10:06:20;;;;;;;39.83;16.55;;;1.80;99.90;;;;;;5015241;28;20164;-80
2021/12/07 10:08:48;;;;;;;37.72;16.73;;;1.90;99.90;;;;;;5013350;28;20080;-80
2021/12/07 10:11:16;;;;;;;45.50;18.10;;;1.80;99.90;;;;;;5013413;28;20049;-80
2021/12/07 10:13:48;;;;;;;38.75;15.65;;;1.90;99.90;;;;;;5030792;28;20049;-79
2021/12/07 10:16:16;;;;;;;43.42;17.67;;;1.90;99.90;;;;;;5012085;28;20111;-80
2021/12/07 10:18:43;;;;;;;38.45;16.67;;;1.90;99.90;;;;;;5002380;28;20057;-80
2021/12/07 10:21:22;;;;;;;46.22;17.25;;;1.90;99.90;;;;;;5027485;28;20136;-80
2021/12/07 10:23:55;;;;;;;38.92;16.55;;;1.90;99.90;;;;;;5031225;28;20558;-80
2021/12/07 10:26:25;;;;;;;42.28;16.55;;;2.00;99.90;;;;;;5005158;28;20641;-80
2021/12/07 10:29:00;;;;;;;36.53;15.77;;;2.00;99.90;;;;;;5031336;28;20081;-80
2021/12/07 10:31:35;;;;;;;42.80;16.15;;;2.00;99.90;;;;;;5030767;28;20136;-80
2021/12/07 10:34:11;;;;;;;39.72;16.08;;;2.10;99.90;;;;;;5014007;28;20053;-80
2021/12/07 10:36:52;;;;;;;35.85;16.25;;;2.00;99.90;;;;;;5027757;28;20080;-80
2021/12/07 10:39:34;;;;;;;39.08;16.63;;;2.10;99.90;;;;;;5030850;28;20136;-80
2021/12/07 10:42:15;;;;;;;43.72;17.70;;;2.20;99.90;;;;;;5028560;28;20050;-79
2021/12/07 10:45:00;;;;;;;42.10;16.35;;;2.20;99.90;;;;;;5027637;28;20049;-80
2021/12/07 10:47:28;;;;;;;39.88;16.58;;;2.20;99.90;;;;;;5013511;28;20124;-79
2021/12/07 10:49:59;;;;;;;44.83;17.80;;;2.30;99.90;;;;;;5012461;28;20054;-80
2021/12/07 10:52:32;;;;;;;36.72;16.48;;;2.30;99.90;;;;;;5009457;28;20069;-78
2021/12/07 10:55:19;;;;;;;36.50;15.65;;;2.40;99.90;;;;;;5030698;28;20049;-81
2021/12/07 10:57:55;;;;;;;45.95;16.77;;;2.60;99.90;;;;;;5028534;28;20085;-81
2021/12/07 11:00:33;;;;;;;38.47;17.08;;;2.60;99.90;;;;;;5008973;28;20111;-81
2021/12/07 11:03:29;;;;;;;38.22;17.38;;;2.60;99.90;;;;;;5011670;28;20049;-81
2021/12/07 11:05:57;;;;;;;37.28;16.40;;;2.80;99.90;;;;;;5011522;28;20114;-81
2021/12/07 11:08:29;;;;;;;42.20;15.80;;;2.90;99.90;;;;;;5031538;28;20516;-80
2021/12/07 11:10:56;;;;;;;49.72;17.55;;;3.00;99.90;;;;;;5026233;28;20092;-81
2021/12/07 11:13:35;;;;;;;41.08;16.17;;;3.10;99.90;;;;;;5012754;28;20050;-81
2021/12/07 11:16:10;;;;;;;36.03;15.20;;;3.10;99.90;;;;;;5014232;28;20077;-82
2021/12/07 11:18:44;;;;;;;39.08;16.52;;;3.10;99.90;;;;;;5012431;28;20041;-80
2021/12/07 11:21:14;;;;;;;35.60;16.05;;;3.10;99.90;;;;;;4993867;28;20867;-80
2021/12/07 11:23:49;;;;;;;41.70;17.85;;;3.10;99.90;;;;;;5017530;28;20073;-80
2021/12/07 11:31:42;;;;;;;38.97;17.42;;;3.20;99.90;;;;;;5024097;28;20149;-81
2021/12/07 11:34:39;;;;;;;38.78;16.50;;;3.20;99.90;;;;;;5012436;28;20053;-81
2021/12/07 11:37:13;;;;;;;35.65;15.13;;;3.30;99.90;;;;;;5029220;28;20137;-80
2021/12/07 11:39:52;;;;;;;36.10;16.15;;;3.30;99.90;;;;;;5029871;28;20163;-80
2021/12/07 11:42:30;;;;;;;38.15;16.80;;;3.20;99.90;;;;;;5010764;28;20073;-81
2021/12/07 11:45:22;;;;;;;38.38;15.38;;;3.30;99.90;;;;;;5026245;28;20077;-81
2021/12/07 11:47:58;;;;;;;38.38;16.50;;;3.30;99.90;;;;;;5005384;28;20065;-81
2021/12/07 11:50:46;;;;;;;40.17;16.50;;;3.20;99.90;;;;;;5029018;28;20509;-82
2021/12/07 11:53:18;;;;;;;38.28;16.50;;;3.20;99.90;;;;;;5013317;28;20103;-81
2021/12/07 11:55:48;;;;;;;37.83;16.30;;;3.20;99.90;;;;;;5030019;28;20477;-81
2021/12/07 11:58:16;;;;;;;40.17;16.40;;;3.30;99.90;;;;;;5030310;28;20054;-82
2021/12/07 12:00:51;;;;;;;46.15;17.10;;;3.30;99.90;;;;;;5009224;28;20792;-82
2021/12/07 12:03:22;;;;;;;41.50;15.73;;;3.20;99.90;;;;;;5012898;28;20056;-82
2021/12/07 12:05:51;;;;;;;40.10;16.63;;;3.20;99.90;;;;;;5030758;28;20056;-82
2021/12/07 12:08:20;;;;;;;40.30;16.65;;;3.20;99.90;;;;;;5025177;28;20076;-82
2021/12/07 12:11:18;;;;;;;38.45;15.68;;;3.20;99.90;;;;;;5029642;28;20132;-81
2021/12/07 12:14:23;;;;;;;43.60;17.10;;;3.10;99.90;;;;;;5018804;28;20077;-81
2021/12/07 12:17:08;;;;;;;38.20;16.83;;;3.00;99.90;;;;;;4925876;28;20043;-81
2021/12/07 12:19:47;;;;;;;37.97;16.95;;;3.00;99.90;;;;;;5029424;28;20240;-81
2021/12/07 12:22:38;;;;;;;42.45;16.75;;;3.00;99.90;;;;;;5011942;28;20081;-81
2021/12/07 12:25:12;;;;;;;41.30;17.40;;;3.00;99.90;;;;;;5037887;28;20076;-82
2021/12/07 12:27:42;;;;;;;38.03;17.08;;;3.10;99.90;;;;;;5013979;28;20065;-82
2021/12/07 12:30:26;;;;;;;44.08;18.42;;;3.10;99.90;;;;;;5012818;28;20115;-81
2021/12/07 12:33:01;;;;;;;40.03;17.00;;;3.10;99.90;;;;;;5013064;28;20101;-82
2021/12/07 12:35:48;;;;;;;44.35;17.58;;;3.00;99.90;;;;;;5038030;28;20066;-83
2021/12/07 12:38:25;;;;;;;39.47;17.17;;;3.00;99.90;;;;;;5022319;28;20079;-81
2021/12/07 12:40:54;;;;;;;37.55;16.67;;;2.90;99.90;;;;;;5018635;28;20061;-80
2021/12/07 12:43:42;;;;;;;39.05;17.23;;;2.90;99.90;;;;;;5012432;28;20128;-83
2021/12/07 12:46:13;;;;;;;46.13;18.13;;;2.80;99.90;;;;;;5030556;28;20099;-83
2021/12/07 12:48:49;;;;;;;40.42;18.45;;;2.80;99.90;;;;;;5012998;28;20124;-84
2021/12/07 12:51:16;;;;;;;;;;;2.70;99.90;;;;;;5031739;28;20077;-84
2021/12/07 12:53:45;;;;;;;42.00;18.33;;;2.70;99.90;;;;;;5030519;28;19974;-84
2021/12/07 12:56:30;;;;;;;49.70;18.20;;;2.70;99.90;;;;;;5018040;28;20160;-84
2021/12/07 12:59:01;;;;;;;39.90;19.73;;;2.60;99.90;;;;;;5021612;28;20088;-77
2021/12/07 13:01:31;;;;;;;38.97;17.42;;;2.60;99.90;;;;;;5022798;28;20451;-77
2021/12/07 13:04:05;;;;;;;43.50;18.85;;;2.70;99.90;;;;;;5001652;28;20049;-77
2021/12/07 13:06:32;;;;;;;46.92;19.33;;;2.70;99.90;;;;;;5008535;28;20130;-78
2021/12/07 13:09:19;;;;;;;49.60;18.73;;;2.60;99.90;;;;;;5015543;28;20417;-78
2021/12/07 13:12:10;;;;;;;49.92;18.85;;;2.50;99.90;;;;;;5026588;28;20052;-78
2021/12/07 13:14:57;;;;;;;44.72;18.42;;;2.40;99.90;;;;;;5025759;28;20134;-78
2021/12/07 13:17:26;;;;;;;48.72;18.83;;;2.40;99.90;;;;;;5015925;28;20080;-77
2021/12/07 13:20:16;;;;;;;50.40;19.02;;;2.40;99.90;;;;;;5009923;28;20057;-77
2021/12/07 13:23:00;;;;;;;36.80;17.02;;;2.40;99.90;;;;;;5004671;28;20045;-77
2021/12/07 13:25:44;;;;;;;42.88;19.08;;;2.30;99.90;;;;;;5028333;28;20128;-78
2021/12/07 13:28:24;;;;;;;54.13;19.92;;;2.40;99.90;;;;;;5028038;28;20081;-78
2021/12/07 13:31:11;;;;;;;46.63;18.63;;;2.40;99.90;;;;;;5010296;28;20127;-77
2021/12/07 13:33:47;;;;;;;44.17;17.33;;;2.40;99.90;;;;;;5010131;28;20053;-78
2021/12/07 13:36:53;;;;;;;47.35;18.70;;;2.40;99.90;;;;;;5011383;28;20141;-77
2021/12/07 13:39:21;;;;;;;49.03;18.70;;;2.30;99.90;;;;;;5028198;28;20147;-78
2021/12/07 13:42:18;;;;;;;45.30;19.48;;;2.30;99.90;;;;;;5027809;28;20085;-78
2021/12/07 13:44:52;;;;;;;41.60;17.30;;;2.30;99.90;;;;;;5024611;28;20132;-78
2021/12/07 13:47:22;;;;;;;54.10;20.17;;;2.30;99.90;;;;;;5010611;28;20072;-78
2021/12/07 13:49:55;;;;;;;48.47;19.42;;;2.20;99.90;;;;;;5022143;28;20522;-78
2021/12/07 13:52:25;;;;;;;47.80;18.27;;;2.20;99.90;;;;;;5026737;28;20050;-78
2021/12/07 13:54:58;;;;;;;44.92;19.35;;;2.20;99.90;;;;;;5009191;28;20067;-77
2021/12/07 13:57:29;;;;;;;47.38;19.88;;;2.10;99.90;;;;;;5010232;28;20053;-78
2021/12/07 14:00:17;;;;;;;54.05;20.95;;;2.10;99.90;;;;;;5010424;28;20088;-78
2021/12/07 14:02:57;;;;;;;44.90;18.65;;;2.10;99.90;;;;;;5002513;28;20081;-78
2021/12/07 14:05:36;;;;;;;52.05;21.65;;;2.00;99.90;;;;;;5035105;28;20046;-78
2021/12/07 14:08:06;;;;;;;44.35;18.88;;;2.00;99.90;;;;;;5010885;28;20053;-78
2021/12/07 14:10:39;;;;;;;52.00;19.63;;;1.90;99.90;;;;;;5010155;28;20153;-77
2021/12/07 14:13:07;;;;;;;50.67;19.15;;;1.90;99.90;;;;;;5006522;28;20804;-78
2021/12/07 14:15:46;;;;;;;58.95;20.83;;;1.90;99.90;;;;;;5027573;28;20053;-78
2021/12/07 14:18:22;;;;;;;54.45;20.80;;;1.80;99.90;;;;;;5007691;28;20141;-78
2021/12/07 14:20:57;;;;;;;45.80;19.55;;;1.80;99.90;;;;;;5009896;28;20128;-78
2021/12/07 14:23:25;;;;;;;;;;;1.80;99.90;;;;;;5028387;28;20132;-77
2021/12/07 14:25:59;;;;;;;50.75;18.92;;;1.70;99.90;;;;;;5026123;28;20016;-76
2021/12/07 14:28:30;;;;;;;53.23;20.93;;;1.60;99.90;;;;;;5020364;28;20107;-78
2021/12/07 14:31:17;;;;;;;57.15;20.45;;;1.60;99.90;;;;;;5005908;28;20989;-78
2021/12/07 14:33:47;;;;;;;61.95;21.15;;;1.60;99.90;;;;;;5014535;28;20596;-77
2021/12/07 14:36:18;;;;;;;58.80;22.25;;;1.50;99.90;;;;;;5008856;28;20097;-78
2021/12/07 14:38:49;;;;;;;67.85;23.58;;;1.50;99.90;;;;;;5007899;28;20078;-78
2021/12/07 14:41:19;;;;;;;66.65;23.90;;;1.60;99.90;;;;;;5025181;28;20135;-78
2021/12/07 14:43:47;;;;;;;57.83;22.67;;;1.60;99.90;;;;;;5023396;28;20046;-77
2021/12/07 14:46:17;;;;;;;57.75;22.25;;;1.60;99.90;;;;;;5008499;28;20047;-77
2021/12/07 14:48:47;;;;;;;59.30;22.25;;;1.60;99.90;;;;;;5000039;28;20664;-78